sensor_id;sensor_type;location;lat;lon;timestamp;P1;P2;P0
50589;PMS7003;36547;50.514;30.840;2023-12-14T00:00:37;6.10;3.90;3.00
50589;PMS7003;36547;50.514;30.840;2023-12-14T00:01:39;3.40;3.40;3.00
50589;PMS7003;36547;50.514;30.840;2023-12-14T00:02:42;4.20;4.20;3.00
50589;PMS7003;36547;50.514;30.840;2023-12-14T00:03:44;3.56;2.78;2.56
50589;PMS7003;36547;50.514;30.840;2023-12-14T00:04:47;7.00;4.90;3.90
50589;PMS7003;36547;50.514;30.840;2023-12-14T00:05:49;8.60;6.30;4.30
50589;PMS7003;36547;50.514;30.840;2023-12-14T00:06:52;3.64;3.36;2.82
50589;PMS7003;36547;50.514;30.840;2023-12-14T00:07:55;5.40;3.90;3.50
50589;PMS7003;36547;50.514;30.840;2023-12-14T00:08:58;6.70;4.80;3.00
50589;PMS7003;36547;50.514;30.840;2023-12-14T00:10:00;4.70;3.80;2.80
50589;PMS7003;36547;50.514;30.840;2023-12-14T00:11:05;5.20;5.20;3.40
50589;PMS7003;36547;50.514;30.840;2023-12-14T00:12:08;3.60;3.60;2.90
50589;PMS7003;36547;50.514;30.840;2023-12-14T00:13:11;3.10;2.90;1.20
50589;PMS7003;36547;50.514;30.840;2023-12-14T00:14:13;5.60;4.20;3.10
50589;PMS7003;36547;50.514;30.840;2023-12-14T00:15:15;5.30;3.50;3.40
50589;PMS7003;36547;50.514;30.840;2023-12-14T00:16:19;5.60;4.40;3.00
50589;PMS7003;36547;50.514;30.840;2023-12-14T00:17:21;3.80;3.80;3.10
50589;PMS7003;36547;50.514;30.840;2023-12-14T00:18:23;7.20;4.50;3.20
50589;PMS7003;36547;50.514;30.840;2023-12-14T00:19:26;7.10;5.60;4.40
50589;PMS7003;36547;50.514;30.840;2023-12-14T00:20:28;7.50;6.20;3.80
50589;PMS7003;36547;50.514;30.840;2023-12-14T00:21:30;6.60;6.00;3.30
50589;PMS7003;36547;50.514;30.840;2023-12-14T00:22:32;6.20;6.20;5.40
50589;PMS7003;36547;50.514;30.840;2023-12-14T00:23:35;5.70;4.90;4.10
50589;PMS7003;36547;50.514;30.840;2023-12-14T00:24:37;6.80;5.50;3.50
50589;PMS7003;36547;50.514;30.840;2023-12-14T00:25:40;6.20;6.20;5.50
50589;PMS7003;36547;50.514;30.840;2023-12-14T00:26:42;6.00;6.00;4.70
50589;PMS7003;36547;50.514;30.840;2023-12-14T00:27:44;9.60;6.30;5.00
50589;PMS7003;36547;50.514;30.840;2023-12-14T00:28:47;6.50;5.30;3.90
50589;PMS7003;36547;50.514;30.840;2023-12-14T00:29:50;5.40;4.10;3.30
50589;PMS7003;36547;50.514;30.840;2023-12-14T00:30:52;5.00;5.00;4.30
50589;PMS7003;36547;50.514;30.840;2023-12-14T00:31:55;7.00;7.00;4.80
50589;PMS7003;36547;50.514;30.840;2023-12-14T00:32:58;4.55;4.18;3.91
50589;PMS7003;36547;50.514;30.840;2023-12-14T00:34:01;6.73;6.27;4.45
50589;PMS7003;36547;50.514;30.840;2023-12-14T00:35:03;7.10;4.80;3.20
50589;PMS7003;36547;50.514;30.840;2023-12-14T00:36:07;8.40;6.70;4.40
50589;PMS7003;36547;50.514;30.840;2023-12-14T00:37:10;6.64;6.27;5.09
50589;PMS7003;36547;50.514;30.840;2023-12-14T00:38:12;7.10;4.80;3.60
50589;PMS7003;36547;50.514;30.840;2023-12-14T00:39:15;4.70;4.70;3.50
50589;PMS7003;36547;50.514;30.840;2023-12-14T00:40:18;5.64;5.09;4.64
50589;PMS7003;36547;50.514;30.840;2023-12-14T00:41:21;6.50;5.10;3.70
50589;PMS7003;36547;50.514;30.840;2023-12-14T00:42:23;5.60;5.20;2.90
50589;PMS7003;36547;50.514;30.840;2023-12-14T00:43:26;6.10;4.80;3.90
50589;PMS7003;36547;50.514;30.840;2023-12-14T00:44:29;6.09;5.18;3.91
50589;PMS7003;36547;50.514;30.840;2023-12-14T00:45:31;5.50;4.80;3.60
50589;PMS7003;36547;50.514;30.840;2023-12-14T00:46:33;3.20;3.20;3.10
50589;PMS7003;36547;50.514;30.840;2023-12-14T00:47:36;8.30;7.10;5.30
50589;PMS7003;36547;50.514;30.840;2023-12-14T00:48:39;5.10;4.40;3.40
50589;PMS7003;36547;50.514;30.840;2023-12-14T00:49:41;6.90;6.30;4.80
50589;PMS7003;36547;50.514;30.840;2023-12-14T00:50:44;5.45;3.82;3.00
50589;PMS7003;36547;50.514;30.840;2023-12-14T00:51:46;6.00;5.11;4.00
50589;PMS7003;36547;50.514;30.840;2023-12-14T00:52:48;6.56;6.56;3.89
50589;PMS7003;36547;50.514;30.840;2023-12-14T00:53:50;3.10;2.50;0.80
50589;PMS7003;36547;50.514;30.840;2023-12-14T00:54:53;7.00;3.90;2.90
50589;PMS7003;36547;50.514;30.840;2023-12-14T00:55:56;7.00;6.50;3.50
50589;PMS7003;36547;50.514;30.840;2023-12-14T00:56:59;4.80;3.00;2.50
50589;PMS7003;36547;50.514;30.840;2023-12-14T00:58:01;5.10;5.10;3.70
50589;PMS7003;36547;50.514;30.840;2023-12-14T00:59:03;6.40;6.40;4.10
50589;PMS7003;36547;50.514;30.840;2023-12-14T01:00:06;6.40;5.00;3.50
50589;PMS7003;36547;50.514;30.840;2023-12-14T01:01:09;3.82;3.45;2.82
50589;PMS7003;36547;50.514;30.840;2023-12-14T01:02:11;5.56;5.56;3.22
50589;PMS7003;36547;50.514;30.840;2023-12-14T01:03:14;6.00;6.00;4.20
50589;PMS7003;36547;50.514;30.840;2023-12-14T01:04:16;7.30;6.00;3.80
50589;PMS7003;36547;50.514;30.840;2023-12-14T01:05:18;5.60;3.70;2.60
50589;PMS7003;36547;50.514;30.840;2023-12-14T01:06:22;3.90;3.40;2.80
50589;PMS7003;36547;50.514;30.840;2023-12-14T01:07:25;5.20;4.70;2.80
50589;PMS7003;36547;50.514;30.840;2023-12-14T01:08:27;6.30;4.20;3.30
50589;PMS7003;36547;50.514;30.840;2023-12-14T01:09:30;4.80;4.00;3.10
50589;PMS7003;36547;50.514;30.840;2023-12-14T01:10:33;9.82;4.55;3.91
50589;PMS7003;36547;50.514;30.840;2023-12-14T01:11:37;4.60;4.60;3.30
50589;PMS7003;36547;50.514;30.840;2023-12-14T01:12:39;4.90;4.60;4.30
50589;PMS7003;36547;50.514;30.840;2023-12-14T01:13:41;7.30;5.40;3.70
50589;PMS7003;36547;50.514;30.840;2023-12-14T01:14:44;4.70;4.40;2.90
50589;PMS7003;36547;50.514;30.840;2023-12-14T01:15:46;7.20;5.50;4.10
50589;PMS7003;36547;50.514;30.840;2023-12-14T01:16:49;6.55;4.82;3.45
50589;PMS7003;36547;50.514;30.840;2023-12-14T01:17:51;3.50;3.50;2.90
50589;PMS7003;36547;50.514;30.840;2023-12-14T01:18:54;6.30;5.30;3.00
50589;PMS7003;36547;50.514;30.840;2023-12-14T01:19:56;3.50;3.50;2.70
50589;PMS7003;36547;50.514;30.840;2023-12-14T01:20:59;6.00;3.45;2.91
50589;PMS7003;36547;50.514;30.840;2023-12-14T01:22:01;5.30;4.60;3.80
50589;PMS7003;36547;50.514;30.840;2023-12-14T01:23:04;6.50;5.20;3.80
50589;PMS7003;36547;50.514;30.840;2023-12-14T01:24:06;6.70;5.60;4.20
50589;PMS7003;36547;50.514;30.840;2023-12-14T01:25:09;6.10;5.00;3.40
50589;PMS7003;36547;50.514;30.840;2023-12-14T01:26:12;6.20;4.30;3.40
50589;PMS7003;36547;50.514;30.840;2023-12-14T01:27:15;6.60;5.10;3.50
50589;PMS7003;36547;50.514;30.840;2023-12-14T01:28:17;3.70;3.30;2.80
50589;PMS7003;36547;50.514;30.840;2023-12-14T01:29:19;5.40;5.40;3.50
50589;PMS7003;36547;50.514;30.840;2023-12-14T01:30:21;5.10;4.00;3.60
50589;PMS7003;36547;50.514;30.840;2023-12-14T01:31:24;5.30;5.30;4.40
50589;PMS7003;36547;50.514;30.840;2023-12-14T01:32:27;6.30;4.90;4.00
50589;PMS7003;36547;50.514;30.840;2023-12-14T01:33:29;2.90;2.90;2.80
50589;PMS7003;36547;50.514;30.840;2023-12-14T01:34:32;6.30;3.60;2.80
50589;PMS7003;36547;50.514;30.840;2023-12-14T01:35:34;5.10;3.90;3.30
50589;PMS7003;36547;50.514;30.840;2023-12-14T01:36:37;3.70;3.50;3.00
50589;PMS7003;36547;50.514;30.840;2023-12-14T01:37:40;3.50;3.40;3.00
50589;PMS7003;36547;50.514;30.840;2023-12-14T01:38:42;5.90;3.00;2.80
50589;PMS7003;36547;50.514;30.840;2023-12-14T01:39:44;3.90;3.10;2.90
50589;PMS7003;36547;50.514;30.840;2023-12-14T01:40:49;3.90;3.80;3.00
50589;PMS7003;36547;50.514;30.840;2023-12-14T01:41:52;3.60;3.60;3.00
50589;PMS7003;36547;50.514;30.840;2023-12-14T01:43:05;5.80;5.80;3.70
50589;PMS7003;36547;50.514;30.840;2023-12-14T01:44:09;3.70;2.70;2.10
50589;PMS7003;36547;50.514;30.840;2023-12-14T01:45:12;4.70;4.50;3.30
50589;PMS7003;36547;50.514;30.840;2023-12-14T01:46:16;2.90;2.70;2.20
50589;PMS7003;36547;50.514;30.840;2023-12-14T01:47:18;3.70;3.30;3.00
50589;PMS7003;36547;50.514;30.840;2023-12-14T01:48:21;4.09;4.09;3.00
50589;PMS7003;36547;50.514;30.840;2023-12-14T01:49:23;6.30;4.80;3.10
50589;PMS7003;36547;50.514;30.840;2023-12-14T01:50:26;4.60;3.60;2.80
50589;PMS7003;36547;50.514;30.840;2023-12-14T01:51:29;5.90;3.60;2.70
50589;PMS7003;36547;50.514;30.840;2023-12-14T01:52:31;2.70;2.70;2.40
50589;PMS7003;36547;50.514;30.840;2023-12-14T01:53:34;4.60;2.80;2.70
50589;PMS7003;36547;50.514;30.840;2023-12-14T01:54:36;2.20;2.00;2.00
50589;PMS7003;36547;50.514;30.840;2023-12-14T01:55:38;2.30;2.30;1.80
50589;PMS7003;36547;50.514;30.840;2023-12-14T01:56:42;2.90;2.90;2.70
50589;PMS7003;36547;50.514;30.840;2023-12-14T01:57:44;3.00;3.00;2.00
50589;PMS7003;36547;50.514;30.840;2023-12-14T01:58:46;3.50;3.00;2.80
50589;PMS7003;36547;50.514;30.840;2023-12-14T01:59:49;4.00;3.50;2.50
50589;PMS7003;36547;50.514;30.840;2023-12-14T02:00:56;5.90;4.40;2.90
50589;PMS7003;36547;50.514;30.840;2023-12-14T02:02:01;5.40;2.80;2.40
50589;PMS7003;36547;50.514;30.840;2023-12-14T02:03:04;5.50;2.70;2.20
50589;PMS7003;36547;50.514;30.840;2023-12-14T02:04:06;3.60;3.60;2.60
50589;PMS7003;36547;50.514;30.840;2023-12-14T02:05:08;3.20;3.20;2.90
50589;PMS7003;36547;50.514;30.840;2023-12-14T02:06:11;5.20;3.20;2.80
50589;PMS7003;36547;50.514;30.840;2023-12-14T02:07:14;3.60;3.20;2.60
50589;PMS7003;36547;50.514;30.840;2023-12-14T02:08:16;3.30;2.40;2.00
50589;PMS7003;36547;50.514;30.840;2023-12-14T02:09:18;6.20;3.00;2.30
50589;PMS7003;36547;50.514;30.840;2023-12-14T02:10:22;4.40;3.30;2.80
50589;PMS7003;36547;50.514;30.840;2023-12-14T02:11:24;2.80;2.80;2.00
50589;PMS7003;36547;50.514;30.840;2023-12-14T02:12:27;3.00;2.50;2.50
50589;PMS7003;36547;50.514;30.840;2023-12-14T02:13:29;4.50;3.40;2.50
50589;PMS7003;36547;50.514;30.840;2023-12-14T02:14:31;2.80;2.80;2.40
50589;PMS7003;36547;50.514;30.840;2023-12-14T02:15:33;2.70;2.70;2.20
50589;PMS7003;36547;50.514;30.840;2023-12-14T02:16:37;3.50;2.40;2.20
50589;PMS7003;36547;50.514;30.840;2023-12-14T02:17:40;2.45;2.09;2.00
50589;PMS7003;36547;50.514;30.840;2023-12-14T02:18:43;2.10;2.10;1.80
50589;PMS7003;36547;50.514;30.840;2023-12-14T02:19:45;4.30;4.00;2.50
50589;PMS7003;36547;50.514;30.840;2023-12-14T02:20:47;2.00;2.00;1.80
50589;PMS7003;36547;50.514;30.840;2023-12-14T02:21:49;3.30;2.80;2.60
50589;PMS7003;36547;50.514;30.840;2023-12-14T02:22:52;2.50;2.50;2.40
50589;PMS7003;36547;50.514;30.840;2023-12-14T02:23:56;4.30;2.40;2.30
50589;PMS7003;36547;50.514;30.840;2023-12-14T02:24:58;2.20;2.20;2.20
50589;PMS7003;36547;50.514;30.840;2023-12-14T02:26:01;2.00;1.30;1.00
50589;PMS7003;36547;50.514;30.840;2023-12-14T02:27:04;3.18;2.82;2.27
50589;PMS7003;36547;50.514;30.840;2023-12-14T02:28:06;2.50;2.50;2.00
50589;PMS7003;36547;50.514;30.840;2023-12-14T02:29:11;2.70;2.70;2.00
50589;PMS7003;36547;50.514;30.840;2023-12-14T02:30:15;3.40;3.00;2.20
50589;PMS7003;36547;50.514;30.840;2023-12-14T02:31:19;1.50;1.50;1.50
50589;PMS7003;36547;50.514;30.840;2023-12-14T02:32:21;2.80;2.80;2.00
50589;PMS7003;36547;50.514;30.840;2023-12-14T02:33:25;1.70;1.70;1.40
50589;PMS7003;36547;50.514;30.840;2023-12-14T02:34:27;2.60;2.60;2.40
50589;PMS7003;36547;50.514;30.840;2023-12-14T02:35:29;3.89;2.67;2.11
50589;PMS7003;36547;50.514;30.840;2023-12-14T02:36:33;3.80;3.40;2.30
50589;PMS7003;36547;50.514;30.840;2023-12-14T02:37:36;3.20;3.20;2.70
50589;PMS7003;36547;50.514;30.840;2023-12-14T02:38:39;5.73;3.45;2.91
50589;PMS7003;36547;50.514;30.840;2023-12-14T02:39:41;5.30;2.60;2.50
50589;PMS7003;36547;50.514;30.840;2023-12-14T02:40:46;2.80;2.00;1.80
50589;PMS7003;36547;50.514;30.840;2023-12-14T02:41:48;3.20;3.20;2.70
50589;PMS7003;36547;50.514;30.840;2023-12-14T02:42:50;4.80;3.20;2.80
50589;PMS7003;36547;50.514;30.840;2023-12-14T02:43:53;3.10;3.10;2.70
50589;PMS7003;36547;50.514;30.840;2023-12-14T02:44:56;3.80;3.80;2.90
50589;PMS7003;36547;50.514;30.840;2023-12-14T02:45:59;5.20;5.20;3.30
50589;PMS7003;36547;50.514;30.840;2023-12-14T02:47:01;2.40;2.00;1.20
50589;PMS7003;36547;50.514;30.840;2023-12-14T02:48:04;4.00;3.30;3.10
50589;PMS7003;36547;50.514;30.840;2023-12-14T02:49:07;2.70;2.70;2.10
50589;PMS7003;36547;50.514;30.840;2023-12-14T02:50:11;5.90;3.30;2.60
50589;PMS7003;36547;50.514;30.840;2023-12-14T02:51:14;3.30;2.80;2.10
50589;PMS7003;36547;50.514;30.840;2023-12-14T02:52:18;3.70;3.30;2.80
50589;PMS7003;36547;50.514;30.840;2023-12-14T02:53:20;2.30;2.30;2.30
50589;PMS7003;36547;50.514;30.840;2023-12-14T02:54:23;3.20;3.20;2.60
50589;PMS7003;36547;50.514;30.840;2023-12-14T02:55:25;4.90;4.50;3.20
50589;PMS7003;36547;50.514;30.840;2023-12-14T02:56:29;3.00;2.80;1.90
50589;PMS7003;36547;50.514;30.840;2023-12-14T02:57:31;3.20;2.50;1.90
50589;PMS7003;36547;50.514;30.840;2023-12-14T02:58:33;2.50;2.00;1.20
50589;PMS7003;36547;50.514;30.840;2023-12-14T02:59:35;2.50;2.50;2.00
50589;PMS7003;36547;50.514;30.840;2023-12-14T03:00:38;2.80;2.80;2.00
50589;PMS7003;36547;50.514;30.840;2023-12-14T03:01:40;2.80;2.80;2.10
50589;PMS7003;36547;50.514;30.840;2023-12-14T03:02:42;3.00;3.00;2.30
50589;PMS7003;36547;50.514;30.840;2023-12-14T03:03:45;3.50;3.50;2.10
50589;PMS7003;36547;50.514;30.840;2023-12-14T03:04:48;1.25;0.25;0.08
50589;PMS7003;36547;50.514;30.840;2023-12-14T03:05:50;2.80;2.80;1.80
50589;PMS7003;36547;50.514;30.840;2023-12-14T03:06:53;2.27;2.27;1.73
50589;PMS7003;36547;50.514;30.840;2023-12-14T03:07:56;2.64;2.64;2.00
50589;PMS7003;36547;50.514;30.840;2023-12-14T03:08:58;2.70;2.50;1.90
50589;PMS7003;36547;50.514;30.840;2023-12-14T03:10:02;2.27;1.36;1.27
50589;PMS7003;36547;50.514;30.840;2023-12-14T03:11:05;5.80;3.00;2.90
50589;PMS7003;36547;50.514;30.840;2023-12-14T03:12:08;2.50;2.50;2.50
50589;PMS7003;36547;50.514;30.840;2023-12-14T03:13:10;2.50;2.50;2.20
50589;PMS7003;36547;50.514;30.840;2023-12-14T03:14:12;2.30;2.30;2.00
50589;PMS7003;36547;50.514;30.840;2023-12-14T03:15:16;4.60;2.80;1.40
50589;PMS7003;36547;50.514;30.840;2023-12-14T03:16:20;1.40;1.40;1.00
50589;PMS7003;36547;50.514;30.840;2023-12-14T03:17:23;4.70;3.80;2.70
50589;PMS7003;36547;50.514;30.840;2023-12-14T03:18:26;3.20;3.20;2.30
50589;PMS7003;36547;50.514;30.840;2023-12-14T03:19:28;2.50;2.50;1.70
50589;PMS7003;36547;50.514;30.840;2023-12-14T03:20:30;1.70;1.70;1.50
50589;PMS7003;36547;50.514;30.840;2023-12-14T03:21:33;2.50;2.50;2.20
50589;PMS7003;36547;50.514;30.840;2023-12-14T03:22:35;3.00;2.00;1.89
50589;PMS7003;36547;50.514;30.840;2023-12-14T03:23:38;2.60;2.60;2.00
50589;PMS7003;36547;50.514;30.840;2023-12-14T03:24:41;3.00;1.90;1.70
50589;PMS7003;36547;50.514;30.840;2023-12-14T03:25:43;3.50;2.20;2.20
50589;PMS7003;36547;50.514;30.840;2023-12-14T03:26:47;1.90;1.90;1.40
50589;PMS7003;36547;50.514;30.840;2023-12-14T03:27:49;1.90;1.70;1.70
50589;PMS7003;36547;50.514;30.840;2023-12-14T03:28:51;2.20;2.20;1.80
50589;PMS7003;36547;50.514;30.840;2023-12-14T03:29:54;3.30;2.00;1.30
50589;PMS7003;36547;50.514;30.840;2023-12-14T03:30:57;2.73;2.18;1.55
50589;PMS7003;36547;50.514;30.840;2023-12-14T03:32:00;2.00;2.00;1.70
50589;PMS7003;36547;50.514;30.840;2023-12-14T03:33:03;3.00;2.00;1.64
50589;PMS7003;36547;50.514;30.840;2023-12-14T03:34:05;2.20;2.20;1.70
50589;PMS7003;36547;50.514;30.840;2023-12-14T03:35:08;2.60;2.00;1.60
50589;PMS7003;36547;50.514;30.840;2023-12-14T03:36:12;1.20;1.20;1.20
50589;PMS7003;36547;50.514;30.840;2023-12-14T03:37:14;2.50;2.50;2.40
50589;PMS7003;36547;50.514;30.840;2023-12-14T03:38:16;1.70;1.70;1.20
50589;PMS7003;36547;50.514;30.840;2023-12-14T03:39:19;2.50;1.70;1.80
50589;PMS7003;36547;50.514;30.840;2023-12-14T03:40:23;2.20;2.20;1.40
50589;PMS7003;36547;50.514;30.840;2023-12-14T03:41:25;2.50;2.50;2.00
50589;PMS7003;36547;50.514;30.840;2023-12-14T03:42:27;3.30;2.40;2.00
50589;PMS7003;36547;50.514;30.840;2023-12-14T03:43:30;3.20;2.20;2.10
50589;PMS7003;36547;50.514;30.840;2023-12-14T03:44:32;1.00;1.00;1.00
50589;PMS7003;36547;50.514;30.840;2023-12-14T03:45:35;2.30;1.80;1.30
50589;PMS7003;36547;50.514;30.840;2023-12-14T03:46:37;2.40;1.20;1.00
50589;PMS7003;36547;50.514;30.840;2023-12-14T03:47:40;1.50;1.50;1.20
50589;PMS7003;36547;50.514;30.840;2023-12-14T03:48:42;2.70;1.90;1.50
50589;PMS7003;36547;50.514;30.840;2023-12-14T03:49:45;1.70;1.70;1.50
50589;PMS7003;36547;50.514;30.840;2023-12-14T03:50:48;3.20;0.70;0.70
50589;PMS7003;36547;50.514;30.840;2023-12-14T03:51:51;1.70;1.50;1.00
50589;PMS7003;36547;50.514;30.840;2023-12-14T03:52:53;1.70;1.10;0.70
50589;PMS7003;36547;50.514;30.840;2023-12-14T03:53:56;2.80;2.00;1.60
50589;PMS7003;36547;50.514;30.840;2023-12-14T03:54:58;2.40;1.70;1.60
50589;PMS7003;36547;50.514;30.840;2023-12-14T03:56:00;2.70;2.00;1.70
50589;PMS7003;36547;50.514;30.840;2023-12-14T03:57:03;2.50;2.00;1.70
50589;PMS7003;36547;50.514;30.840;2023-12-14T03:58:05;2.30;2.30;1.90
50589;PMS7003;36547;50.514;30.840;2023-12-14T03:59:08;1.80;1.80;1.80
50589;PMS7003;36547;50.514;30.840;2023-12-14T04:00:13;2.20;1.50;1.50
50589;PMS7003;36547;50.514;30.840;2023-12-14T04:01:18;2.64;1.82;1.55
50589;PMS7003;36547;50.514;30.840;2023-12-14T04:02:22;1.20;1.20;0.50
50589;PMS7003;36547;50.514;30.840;2023-12-14T04:03:24;1.90;1.90;1.80
50589;PMS7003;36547;50.514;30.840;2023-12-14T04:04:26;1.50;1.50;1.20
50589;PMS7003;36547;50.514;30.840;2023-12-14T04:05:29;2.00;2.00;2.00
50589;PMS7003;36547;50.514;30.840;2023-12-14T04:06:32;2.50;1.60;1.20
50589;PMS7003;36547;50.514;30.840;2023-12-14T04:07:38;1.40;1.40;1.30
50589;PMS7003;36547;50.514;30.840;2023-12-14T04:08:41;1.90;1.90;1.80
50589;PMS7003;36547;50.514;30.840;2023-12-14T04:09:44;2.10;2.10;1.80
50589;PMS7003;36547;50.514;30.840;2023-12-14T04:10:47;3.20;2.10;1.80
50589;PMS7003;36547;50.514;30.840;2023-12-14T04:11:49;2.00;2.00;1.20
50589;PMS7003;36547;50.514;30.840;2023-12-14T04:12:51;1.50;1.50;1.50
50589;PMS7003;36547;50.514;30.840;2023-12-14T04:13:54;2.70;2.70;1.90
50589;PMS7003;36547;50.514;30.840;2023-12-14T04:14:57;1.50;1.50;1.50
50589;PMS7003;36547;50.514;30.840;2023-12-14T04:16:00;1.70;1.70;1.20
50589;PMS7003;36547;50.514;30.840;2023-12-14T04:17:02;1.20;1.20;1.00
50589;PMS7003;36547;50.514;30.840;2023-12-14T04:18:07;1.60;1.60;1.20
50589;PMS7003;36547;50.514;30.840;2023-12-14T04:19:10;1.90;1.90;1.50
50589;PMS7003;36547;50.514;30.840;2023-12-14T04:20:13;2.50;2.30;1.80
50589;PMS7003;36547;50.514;30.840;2023-12-14T04:21:15;3.70;2.30;1.70
50589;PMS7003;36547;50.514;30.840;2023-12-14T04:22:18;2.50;1.20;1.00
50589;PMS7003;36547;50.514;30.840;2023-12-14T04:23:20;1.80;1.80;1.70
50589;PMS7003;36547;50.514;30.840;2023-12-14T04:24:23;2.00;1.70;1.40
50589;PMS7003;36547;50.514;30.840;2023-12-14T04:25:25;2.40;2.00;1.50
50589;PMS7003;36547;50.514;30.840;2023-12-14T04:26:28;2.09;2.00;1.82
50589;PMS7003;36547;50.514;30.840;2023-12-14T04:27:30;2.00;2.00;1.70
50589;PMS7003;36547;50.514;30.840;2023-12-14T04:28:32;3.10;1.90;1.70
50589;PMS7003;36547;50.514;30.840;2023-12-14T04:29:35;0.70;0.70;0.60
50589;PMS7003;36547;50.514;30.840;2023-12-14T04:30:37;1.60;1.40;1.00
50589;PMS7003;36547;50.514;30.840;2023-12-14T04:31:40;2.60;2.50;1.90
50589;PMS7003;36547;50.514;30.840;2023-12-14T04:32:42;1.20;1.20;1.20
50589;PMS7003;36547;50.514;30.840;2023-12-14T04:33:44;2.40;2.00;1.80
50589;PMS7003;36547;50.514;30.840;2023-12-14T04:34:46;2.80;2.80;2.00
50589;PMS7003;36547;50.514;30.840;2023-12-14T04:35:49;2.80;1.70;1.40
50589;PMS7003;36547;50.514;30.840;2023-12-14T04:36:52;2.00;2.00;1.70
50589;PMS7003;36547;50.514;30.840;2023-12-14T04:37:55;2.30;2.30;1.70
50589;PMS7003;36547;50.514;30.840;2023-12-14T04:38:57;4.40;2.70;2.60
50589;PMS7003;36547;50.514;30.840;2023-12-14T04:40:00;2.50;2.50;1.90
50589;PMS7003;36547;50.514;30.840;2023-12-14T04:41:02;2.80;2.80;2.30
50589;PMS7003;36547;50.514;30.840;2023-12-14T04:42:04;1.80;1.80;1.10
50589;PMS7003;36547;50.514;30.840;2023-12-14T04:43:07;2.20;2.00;1.90
50589;PMS7003;36547;50.514;30.840;2023-12-14T04:44:09;2.50;2.00;1.60
50589;PMS7003;36547;50.514;30.840;2023-12-14T04:45:12;2.40;1.40;1.00
50589;PMS7003;36547;50.514;30.840;2023-12-14T04:46:16;2.90;2.10;1.50
50589;PMS7003;36547;50.514;30.840;2023-12-14T04:47:18;1.80;1.80;1.20
50589;PMS7003;36547;50.514;30.840;2023-12-14T04:48:21;2.00;2.00;2.00
50589;PMS7003;36547;50.514;30.840;2023-12-14T04:49:23;1.60;1.60;1.60
50589;PMS7003;36547;50.514;30.840;2023-12-14T04:50:26;2.60;2.40;1.50
50589;PMS7003;36547;50.514;30.840;2023-12-14T04:51:28;1.80;1.80;1.50
50589;PMS7003;36547;50.514;30.840;2023-12-14T04:52:31;3.60;1.50;1.50
50589;PMS7003;36547;50.514;30.840;2023-12-14T04:53:33;2.10;2.10;1.80
50589;PMS7003;36547;50.514;30.840;2023-12-14T04:54:36;1.90;1.90;1.00
50589;PMS7003;36547;50.514;30.840;2023-12-14T04:55:38;2.00;2.00;1.70
50589;PMS7003;36547;50.514;30.840;2023-12-14T04:56:41;2.64;2.36;2.00
50589;PMS7003;36547;50.514;30.840;2023-12-14T04:57:43;2.50;1.50;1.50
50589;PMS7003;36547;50.514;30.840;2023-12-14T04:58:46;2.00;2.00;2.00
50589;PMS7003;36547;50.514;30.840;2023-12-14T04:59:48;2.50;2.50;1.40
50589;PMS7003;36547;50.514;30.840;2023-12-14T05:00:51;3.70;2.20;2.00
50589;PMS7003;36547;50.514;30.840;2023-12-14T05:01:54;4.00;3.50;2.80
50589;PMS7003;36547;50.514;30.840;2023-12-14T05:02:56;4.00;2.50;2.00
50589;PMS7003;36547;50.514;30.840;2023-12-14T05:03:58;4.20;4.20;3.00
50589;PMS7003;36547;50.514;30.840;2023-12-14T05:05:00;3.20;3.20;2.50
50589;PMS7003;36547;50.514;30.840;2023-12-14T05:06:03;3.30;3.30;2.20
50589;PMS7003;36547;50.514;30.840;2023-12-14T05:07:06;2.60;2.60;2.00
50589;PMS7003;36547;50.514;30.840;2023-12-14T05:08:08;3.70;2.20;2.10
50589;PMS7003;36547;50.514;30.840;2023-12-14T05:09:11;2.20;2.20;2.10
50589;PMS7003;36547;50.514;30.840;2023-12-14T05:10:14;2.64;2.64;2.09
50589;PMS7003;36547;50.514;30.840;2023-12-14T05:11:17;1.73;0.82;0.27
50589;PMS7003;36547;50.514;30.840;2023-12-14T05:12:20;2.50;2.50;1.50
50589;PMS7003;36547;50.514;30.840;2023-12-14T05:13:22;2.60;2.00;1.30
50589;PMS7003;36547;50.514;30.840;2023-12-14T05:14:25;2.60;1.60;1.60
50589;PMS7003;36547;50.514;30.840;2023-12-14T05:15:27;3.00;2.00;1.40
50589;PMS7003;36547;50.514;30.840;2023-12-14T05:16:30;5.30;2.40;1.70
50589;PMS7003;36547;50.514;30.840;2023-12-14T05:17:33;2.30;1.70;1.50
50589;PMS7003;36547;50.514;30.840;2023-12-14T05:18:35;2.60;2.60;2.10
50589;PMS7003;36547;50.514;30.840;2023-12-14T05:19:38;3.10;2.80;2.40
50589;PMS7003;36547;50.514;30.840;2023-12-14T05:20:41;2.50;2.50;1.80
50589;PMS7003;36547;50.514;30.840;2023-12-14T05:21:44;2.73;2.55;1.73
50589;PMS7003;36547;50.514;30.840;2023-12-14T05:22:47;2.55;2.55;2.09
50589;PMS7003;36547;50.514;30.840;2023-12-14T05:23:49;2.80;2.30;1.80
50589;PMS7003;36547;50.514;30.840;2023-12-14T05:24:52;2.70;2.70;2.10
50589;PMS7003;36547;50.514;30.840;2023-12-14T05:25:54;2.30;2.30;2.20
50589;PMS7003;36547;50.514;30.840;2023-12-14T05:26:57;3.60;3.20;2.60
50589;PMS7003;36547;50.514;30.840;2023-12-14T05:28:00;2.00;2.00;1.90
50589;PMS7003;36547;50.514;30.840;2023-12-14T05:29:02;2.40;2.40;1.80
50589;PMS7003;36547;50.514;30.840;2023-12-14T05:30:06;2.40;2.40;2.30
50589;PMS7003;36547;50.514;30.840;2023-12-14T05:31:09;3.40;2.20;1.70
50589;PMS7003;36547;50.514;30.840;2023-12-14T05:32:11;2.80;2.80;1.90
50589;PMS7003;36547;50.514;30.840;2023-12-14T05:33:14;2.80;2.00;1.60
50589;PMS7003;36547;50.514;30.840;2023-12-14T05:34:17;3.27;2.36;2.09
50589;PMS7003;36547;50.514;30.840;2023-12-14T05:35:21;4.80;3.20;2.50
50589;PMS7003;36547;50.514;30.840;2023-12-14T05:36:25;3.60;3.20;2.50
50589;PMS7003;36547;50.514;30.840;2023-12-14T05:37:28;1.80;1.80;1.60
50589;PMS7003;36547;50.514;30.840;2023-12-14T05:38:31;2.30;2.30;2.00
50589;PMS7003;36547;50.514;30.840;2023-12-14T05:39:33;3.10;3.10;2.20
50589;PMS7003;36547;50.514;30.840;2023-12-14T05:40:35;3.50;1.90;1.80
50589;PMS7003;36547;50.514;30.840;2023-12-14T05:41:41;2.90;2.20;2.00
50589;PMS7003;36547;50.514;30.840;2023-12-14T05:42:43;2.30;2.30;1.60
50589;PMS7003;36547;50.514;30.840;2023-12-14T05:43:46;2.40;2.40;2.20
50589;PMS7003;36547;50.514;30.840;2023-12-14T05:44:48;2.20;2.20;1.60
50589;PMS7003;36547;50.514;30.840;2023-12-14T05:45:51;2.40;2.40;1.60
50589;PMS7003;36547;50.514;30.840;2023-12-14T05:46:53;2.40;2.40;2.00
50589;PMS7003;36547;50.514;30.840;2023-12-14T05:47:56;3.20;2.00;1.80
50589;PMS7003;36547;50.514;30.840;2023-12-14T05:48:58;4.30;2.90;2.00
50589;PMS7003;36547;50.514;30.840;2023-12-14T05:50:02;3.60;3.20;2.50
50589;PMS7003;36547;50.514;30.840;2023-12-14T05:51:05;2.30;2.30;1.80
50589;PMS7003;36547;50.514;30.840;2023-12-14T05:52:08;2.73;2.64;2.00
50589;PMS7003;36547;50.514;30.840;2023-12-14T05:53:10;2.20;2.20;2.20
50589;PMS7003;36547;50.514;30.840;2023-12-14T05:54:13;3.64;2.55;1.73
50589;PMS7003;36547;50.514;30.840;2023-12-14T05:55:16;2.30;1.80;1.50
50589;PMS7003;36547;50.514;30.840;2023-12-14T05:56:20;2.70;2.70;2.60
50589;PMS7003;36547;50.514;30.840;2023-12-14T05:57:22;2.50;2.50;2.00
50589;PMS7003;36547;50.514;30.840;2023-12-14T05:58:24;5.00;2.50;2.30
50589;PMS7003;36547;50.514;30.840;2023-12-14T05:59:26;3.20;3.00;2.30
50589;PMS7003;36547;50.514;30.840;2023-12-14T06:00:30;2.10;0.20;0.20
50589;PMS7003;36547;50.514;30.840;2023-12-14T06:01:32;2.50;2.50;2.20